Vemaoil Xxiii — 9HXU9 — position and weather

sailwx.info

Track history (hours):
 
Tides and Currents Weather Stations Pressure Air Temp Water Temp Dewpoint Dewpoint Depression Visibility Wind Speed Wind Dir Waves Ship Positions

Vemaoil Xxiii

Last reported at 2017-Nov-24 03:02 UTC. Time now 2017-Nov-24 09:25 UTC.
Position N 36°07' W 005°21'.

Length 110 m; draft 6.6 m.

Type: Tanker. MMSI: 249677000.

Date/timePositionNaut miles runAvg speedWind from/ knotsBaromVisibWave heightAir tempDewpointWater temp
2017-Nov-24 03:02N 36°07' W 005°21'0 1.9
2017-Nov-24 02:55N 36°07' W 005°22'1 0.0
2017-Nov-22 22:20N 36°08' W 005°23'0 1.0
2017-Nov-22 21:57N 36°07' W 005°22'1 1.5
2017-Nov-22 21:26N 36°07' W 005°22'2 4.6
2017-Nov-22 20:57N 36°05' W 005°21'4 9.1
2017-Nov-22 20:30N 36°01' W 005°20'5 9.4
2017-Nov-22 20:00N 35°56' W 005°19'3 5.1
2017-Nov-22 19:30N 35°54' W 005°19'  
2017-Nov-19 22:50N 36°09' W 005°23'2 4.6
2017-Nov-19 22:29N 36°07' W 005°23'1 1.9
2017-Nov-19 21:56N 36°06' W 005°22'0 0.1
2017-Nov-19 21:20N 36°06' W 005°22'0 0.0
2017-Nov-19 15:09N 36°06' W 005°21'0 0.6
2017-Nov-19 15:00N 36°06' W 005°21'2 3.4
2017-Nov-19 14:30N 36°06' W 005°19'2 3.9
2017-Nov-19 13:57N 36°08' W 005°18'0 0.0
2017-Nov-19 13:30N 36°08' W 005°18'0 0.0
2017-Nov-19 13:00N 36°08' W 005°18'0 0.0
2017-Nov-19 09:29N 36°08' W 005°18'0 0.0
2017-Nov-19 09:00N 36°08' W 005°18'0 0.0
2017-Nov-19 08:29N 36°08' W 005°18'0 0.0
2017-Nov-19 07:57N 36°08' W 005°18'0 0.0
2017-Nov-19 07:30N 36°08' W 005°18'0 0.0
2017-Nov-19 07:00N 36°08' W 005°18'0 0.0
2017-Nov-19 06:30N 36°08' W 005°18'0 0.0
2017-Nov-19 05:55N 36°08' W 005°18'3 0.7
2017-Nov-19 01:43N 36°05' W 005°21'2 8.1
2017-Nov-19 01:30N 36°07' W 005°22'2 0.6
2017-Nov-18 22:27N 36°08' W 005°22'8 2.1
2017-Nov-18 18:50N 36°01' W 005°20'3 9.2
2017-Nov-18 18:30N 35°58' W 005°20'4 8.2
2017-Nov-18 18:00N 35°54' W 005°19'0 0.6
2017-Nov-18 17:28N 35°54' W 005°18'0 0.0
2017-Nov-18 16:58N 35°54' W 005°18'0 0.0
2017-Nov-18 16:28N 35°54' W 005°18'0 0.0
2017-Nov-18 15:58N 35°54' W 005°18'0 0.0
2017-Nov-18 15:28N 35°54' W 005°18'0 0.0
2017-Nov-18 14:58N 35°54' W 005°18'0 0.0
2017-Nov-18 14:28N 35°54' W 005°18'0 0.0
2017-Nov-18 13:58N 35°54' W 005°18'0 0.0
2017-Nov-18 13:28N 35°54' W 005°18'0 0.0
2017-Nov-18 12:58N 35°54' W 005°18'0 0.0
2017-Nov-18 12:28N 35°54' W 005°18'0 0.0
2017-Nov-18 11:58N 35°54' W 005°18'0 0.0
2017-Nov-18 11:28N 35°54' W 005°18'0 0.0
2017-Nov-18 10:58N 35°54' W 005°18'0 0.0
2017-Nov-18 10:28N 35°54' W 005°18'0 0.0
2017-Nov-18 09:58N 35°54' W 005°18'0 0.0
2017-Nov-18 09:25N 35°54' W 005°18'0 0.0
2017-Nov-18 08:58N 35°54' W 005°18'0 0.0
2017-Nov-18 08:28N 35°54' W 005°18'0 0.0
2017-Nov-18 07:58N 35°54' W 005°18'0 0.0
2017-Nov-18 07:28N 35°54' W 005°18'0 0.0
2017-Nov-18 06:58N 35°54' W 005°18'0 0.0
2017-Nov-18 06:28N 35°54' W 005°18'0 0.0
2017-Nov-18 05:58N 35°54' W 005°18'0 0.0
2017-Nov-18 05:28N 35°54' W 005°18'0 0.0
2017-Nov-18 04:55N 35°54' W 005°18'0 0.0
2017-Nov-18 04:28N 35°54' W 005°18'0 0.0
2017-Nov-18 03:58N 35°54' W 005°18'0 0.0
2017-Nov-18 03:28N 35°54' W 005°18'0 0.0
2017-Nov-18 02:58N 35°54' W 005°18'0 0.0
2017-Nov-18 02:28N 35°54' W 005°18'0 0.0
2017-Nov-18 01:58N 35°54' W 005°18'0 0.1
2017-Nov-18 01:30N 35°54' W 005°18'1 2.8
2017-Nov-18 01:00N 35°55' W 005°19'5 9.7
2017-Nov-18 00:30N 35°60' W 005°20'5 9.6
2017-Nov-18 00:00N 36°04' W 005°22'4 7.3
2017-Nov-17 23:28N 36°08' W 005°23'0 0.0
2017-Nov-17 01:21N 36°09' W 005°23'1 0.4
2017-Nov-16 23:35N 36°09' W 005°23'0 0.1
2017-Nov-16 23:16N 36°09' W 005°23'0 0.1
2017-Nov-16 22:54N 36°09' W 005°23'0 0.6
2017-Nov-16 22:28N 36°09' W 005°23'1 2.6
2017-Nov-16 22:00N 36°08' W 005°23'0 0.1
2017-Nov-16 21:30N 36°08' W 005°23'0 0.0
2017-Nov-16 01:40N 36°08' W 005°22'1 4.0
2017-Nov-16 01:18N 36°09' W 005°23'1 0.4
2017-Nov-15 22:47N 36°08' W 005°23'0 0.0
2017-Nov-15 22:21N 36°08' W 005°23'0 0.2
2017-Nov-15 22:00N 36°08' W 005°23'0 0.0
2017-Nov-15 21:30N 36°08' W 005°23'0 0.1
2017-Nov-15 19:49N 36°08' W 005°23'0 0.0
2017-Nov-15 19:30N 36°08' W 005°23'1 0.0
2017-Nov-15 05:51N 36°08' W 005°22'0 0.2
2017-Nov-15 05:29N 36°08' W 005°22'1 2.0
2017-Nov-15 05:00N 36°09' W 005°23'5 0.2
2017-Nov-14 08:41N 36°04' W 005°21'2 9.2
2017-Nov-14 08:31N 36°03' W 005°21'4 8.8
2017-Nov-14 08:00N 35°58' W 005°19'4 8.5
2017-Nov-14 07:30N 35°54' W 005°19'1 1.3
2017-Nov-14 06:58N 35°54' W 005°18'0 0.0
2017-Nov-14 06:28N 35°54' W 005°18'0 0.0
2017-Nov-14 05:58N 35°54' W 005°18'0 0.0
2017-Nov-14 05:28N 35°54' W 005°18'0 0.0
2017-Nov-14 04:58N 35°54' W 005°18'0 0.0
2017-Nov-14 04:28N 35°54' W 005°18'0 0.0
2017-Nov-14 03:58N 35°54' W 005°18'0 0.0
2017-Nov-14 03:28N 35°54' W 005°18'  
Track history (hours):
 
Tides and Currents Weather Stations Pressure Air Temp Water Temp Dewpoint Dewpoint Depression Visibility Wind Speed Wind Dir Waves Ship Positions

Vemaoil Xxiii

Last reported at 2017-Nov-24 03:02 UTC. Time now 2017-Nov-24 09:25 UTC.
Position N 36°07' W 005°21'.

Length 110 m; draft 6.6 m.

Type: Tanker. MMSI: 249677000.

Date/timePositionNaut miles runAvg speedWind from/ knotsBaromVisibWave heightAir tempDewpointWater temp
2017-Nov-24 03:02N 36°07' W 005°21'0 1.9
2017-Nov-24 02:55N 36°07' W 005°22'1 0.0
2017-Nov-22 22:20N 36°08' W 005°23'0 1.0
2017-Nov-22 21:57N 36°07' W 005°22'1 1.5
2017-Nov-22 21:26N 36°07' W 005°22'2 4.6
2017-Nov-22 20:57N 36°05' W 005°21'4 9.1
2017-Nov-22 20:30N 36°01' W 005°20'5 9.4
2017-Nov-22 20:00N 35°56' W 005°19'3 5.1
2017-Nov-22 19:30N 35°54' W 005°19'  
2017-Nov-19 22:50N 36°09' W 005°23'2 4.6
2017-Nov-19 22:29N 36°07' W 005°23'1 1.9
2017-Nov-19 21:56N 36°06' W 005°22'0 0.1
2017-Nov-19 21:20N 36°06' W 005°22'0 0.0
2017-Nov-19 15:09N 36°06' W 005°21'0 0.6
2017-Nov-19 15:00N 36°06' W 005°21'2 3.4
2017-Nov-19 14:30N 36°06' W 005°19'2 3.9
2017-Nov-19 13:57N 36°08' W 005°18'0 0.0
2017-Nov-19 13:30N 36°08' W 005°18'0 0.0
2017-Nov-19 13:00N 36°08' W 005°18'0 0.0
2017-Nov-19 09:29N 36°08' W 005°18'0 0.0
2017-Nov-19 09:00N 36°08' W 005°18'0 0.0
2017-Nov-19 08:29N 36°08' W 005°18'0 0.0
2017-Nov-19 07:57N 36°08' W 005°18'0 0.0
2017-Nov-19 07:30N 36°08' W 005°18'0 0.0
2017-Nov-19 07:00N 36°08' W 005°18'0 0.0
2017-Nov-19 06:30N 36°08' W 005°18'0 0.0
2017-Nov-19 05:55N 36°08' W 005°18'3 0.7
2017-Nov-19 01:43N 36°05' W 005°21'2 8.1
2017-Nov-19 01:30N 36°07' W 005°22'2 0.6
2017-Nov-18 22:27N 36°08' W 005°22'8 2.1
2017-Nov-18 18:50N 36°01' W 005°20'3 9.2
2017-Nov-18 18:30N 35°58' W 005°20'4 8.2
2017-Nov-18 18:00N 35°54' W 005°19'0 0.6
2017-Nov-18 17:28N 35°54' W 005°18'0 0.0
2017-Nov-18 16:58N 35°54' W 005°18'0 0.0
2017-Nov-18 16:28N 35°54' W 005°18'0 0.0
2017-Nov-18 15:58N 35°54' W 005°18'0 0.0
2017-Nov-18 15:28N 35°54' W 005°18'0 0.0
2017-Nov-18 14:58N 35°54' W 005°18'0 0.0
2017-Nov-18 14:28N 35°54' W 005°18'0 0.0
2017-Nov-18 13:58N 35°54' W 005°18'0 0.0
2017-Nov-18 13:28N 35°54' W 005°18'0 0.0
2017-Nov-18 12:58N 35°54' W 005°18'0 0.0
2017-Nov-18 12:28N 35°54' W 005°18'0 0.0
2017-Nov-18 11:58N 35°54' W 005°18'0 0.0
2017-Nov-18 11:28N 35°54' W 005°18'0 0.0
2017-Nov-18 10:58N 35°54' W 005°18'0 0.0
2017-Nov-18 10:28N 35°54' W 005°18'0 0.0
2017-Nov-18 09:58N 35°54' W 005°18'0 0.0
2017-Nov-18 09:25N 35°54' W 005°18'0 0.0
2017-Nov-18 08:58N 35°54' W 005°18'0 0.0
2017-Nov-18 08:28N 35°54' W 005°18'0 0.0
2017-Nov-18 07:58N 35°54' W 005°18'0 0.0
2017-Nov-18 07:28N 35°54' W 005°18'0 0.0
2017-Nov-18 06:58N 35°54' W 005°18'0 0.0
2017-Nov-18 06:28N 35°54' W 005°18'0 0.0
2017-Nov-18 05:58N 35°54' W 005°18'0 0.0
2017-Nov-18 05:28N 35°54' W 005°18'0 0.0
2017-Nov-18 04:55N 35°54' W 005°18'0 0.0
2017-Nov-18 04:28N 35°54' W 005°18'0 0.0
2017-Nov-18 03:58N 35°54' W 005°18'0 0.0
2017-Nov-18 03:28N 35°54' W 005°18'0 0.0
2017-Nov-18 02:58N 35°54' W 005°18'0 0.0
2017-Nov-18 02:28N 35°54' W 005°18'0 0.0
2017-Nov-18 01:58N 35°54' W 005°18'0 0.1
2017-Nov-18 01:30N 35°54' W 005°18'1 2.8
2017-Nov-18 01:00N 35°55' W 005°19'5 9.7
2017-Nov-18 00:30N 35°60' W 005°20'5 9.6
2017-Nov-18 00:00N 36°04' W 005°22'4 7.3
2017-Nov-17 23:28N 36°08' W 005°23'0 0.0
2017-Nov-17 01:21N 36°09' W 005°23'1 0.4
2017-Nov-16 23:35N 36°09' W 005°23'0 0.1
2017-Nov-16 23:16N 36°09' W 005°23'0 0.1
2017-Nov-16 22:54N 36°09' W 005°23'0 0.6
2017-Nov-16 22:28N 36°09' W 005°23'1 2.6
2017-Nov-16 22:00N 36°08' W 005°23'0 0.1
2017-Nov-16 21:30N 36°08' W 005°23'0 0.0
2017-Nov-16 01:40N 36°08' W 005°22'1 4.0
2017-Nov-16 01:18N 36°09' W 005°23'1 0.4
2017-Nov-15 22:47N 36°08' W 005°23'0 0.0
2017-Nov-15 22:21N 36°08' W 005°23'0 0.2
2017-Nov-15 22:00N 36°08' W 005°23'0 0.0
2017-Nov-15 21:30N 36°08' W 005°23'0 0.1
2017-Nov-15 19:49N 36°08' W 005°23'0 0.0
2017-Nov-15 19:30N 36°08' W 005°23'1 0.0
2017-Nov-15 05:51N 36°08' W 005°22'0 0.2
2017-Nov-15 05:29N 36°08' W 005°22'1 2.0
2017-Nov-15 05:00N 36°09' W 005°23'5 0.2
2017-Nov-14 08:41N 36°04' W 005°21'2 9.2
2017-Nov-14 08:31N 36°03' W 005°21'4 8.8
2017-Nov-14 08:00N 35°58' W 005°19'4 8.5
2017-Nov-14 07:30N 35°54' W 005°19'1 1.3
2017-Nov-14 06:58N 35°54' W 005°18'0 0.0
2017-Nov-14 06:28N 35°54' W 005°18'0 0.0
2017-Nov-14 05:58N 35°54' W 005°18'0 0.0
2017-Nov-14 05:28N 35°54' W 005°18'0 0.0
2017-Nov-14 04:58N 35°54' W 005°18'0 0.0
2017-Nov-14 04:28N 35°54' W 005°18'0 0.0
2017-Nov-14 03:58N 35°54' W 005°18'0 0.0
2017-Nov-14 03:28N 35°54' W 005°18'  

Dump ship's entire track history